Latest Weather Observations for Friendly Beaches

IDT60801

Issued at 7:32 pm EST Sunday 20 August 2017 (issued every 30 minutes, with the page automatically refreshed every 10 minutes)

About weather observations | Map of weather stations | Latest weather observations for TAS | Other Formats
Station Details ID: 092114 Name: FRIENDLY BEACHES Lat: -42.00 Lon: 148.28 Height: 55.0 m
Data from the previous 72 hours. | See also: Recent months at Friendly Beaches
Date/Time
EST
Temp
°C
App
Temp
°C
Dew
Point
°C
Rel
Hum
%
Delta-T
°C
Wind Press
QNH
hPa
Press
MSL
hPa
Rain since
9am
mm
Dir  Spd
km/h
Gust
km/h
Spd
kts
Gust
kts
20/07:30pm 7.1 3.8 2.4 72 1.9 N 9 13 5 7 1017.9 1018.0 0.0
20/07:00pm 6.4 3.5 1.7 72 1.9 NNE 6 7 3 4 1018.1 1018.2 0.0
20/06:30pm 7.8 4.4 1.9 66 2.4 N 9 15 5 8 1018.1 1018.2 0.0
20/06:00pm 8.6 4.1 2.2 64 2.7 N 15 20 8 11 1018.0 1018.1 0.0
20/05:30pm 8.8 5.1 2.4 64 2.7 N 11 17 6 9 1018.1 1018.2 0.0
20/05:00pm 8.4 5.2 2.8 68 2.4 NNE 9 13 5 7 1018.3 1018.4 0.0
20/04:30pm 10.7 7.4 4.4 65 2.8 NNE 11 19 6 10 1018.3 1018.4 0.0
20/04:00pm 9.9 6.3 3.0 62 3.0 NNE 11 15 6 8 1018.4 1018.5 0.0
20/03:30pm 11.5 7.5 2.8 55 3.8 NE 13 19 7 10 1018.4 1018.5 0.0
20/03:00pm 11.9 7.8 2.1 51 4.2 NE 13 19 7 10 1018.5 1018.6 0.0
20/02:30pm 12.1 8.4 2.6 52 4.1 ENE 11 19 6 10 1018.6 1018.7 0.0
20/02:00pm 12.2 8.2 2.6 52 4.2 ENE 13 19 7 10 1018.9 1019.0 0.0
20/01:30pm 12.2 8.5 2.6 52 4.2 NE 11 19 6 10 1019.1 1019.2 0.0
20/01:00pm 12.6 8.7 3.3 53 4.1 NE 13 19 7 10 1019.6 1019.7 0.0
20/12:30pm 13.1 10.4 5.8 61 3.4 NE 9 17 5 9 1020.2 1020.2 0.0
20/12:00pm 12.3 9.6 3.5 55 3.9 WSW 7 13 4 7 1020.8 1020.8 0.0
20/11:30am 12.1 9.0 1.1 47 4.6 WSW 7 13 4 7 1021.4 1021.4 0.0
20/11:00am 11.2 7.6 0.9 49 4.3 W 9 15 5 8 1021.8 1021.8 0.0
20/10:30am 10.5 6.9 0.8 51 4.0 WNW 9 17 5 9 1022.0 1022.0 0.0
20/10:00am 10.6 7.1 1.2 52 3.9 W 9 15 5 8 1022.0 1022.0 0.0
20/09:30am 9.1 5.5 0.8 56 3.4 W 9 15 5 8 1022.2 1022.2 0.0
20/09:00am 7.6 4.0 0.6 61 2.8 W 9 13 5 7 1022.4 1022.4 0.0
20/08:30am 6.2 2.7 1.3 71 2.0 WNW 9 13 5 7 1022.6 1022.6 0.0
20/08:00am 4.6 0.8 1.8 82 1.1 WNW 11 15 6 8 1022.6 1022.6 0.0
20/07:30am 3.8 -0.2 0.7 80 1.2 WNW 11 15 6 8 1022.7 1022.7 0.0
20/07:00am 2.7 -1.2 1.2 90 0.6 WNW 11 15 6 8 1022.6 1022.6 0.0
20/06:30am 2.6 -1.7 0.7 87 0.7 WNW 13 17 7 9 1022.3 1022.3 0.0
20/06:00am 3.1 -0.6 0.2 81 1.1 WNW 9 13 5 7 1022.3 1022.3 0.0
20/05:30am 4.0 0.4 0.5 78 1.3 WNW 9 13 5 7 1022.3 1022.3 0.0
20/05:00am 3.6 -0.7 0.8 82 1.1 WNW 13 17 7 9 1022.3 1022.3 0.0
20/04:30am 3.5 -0.4 1.2 85 0.9 W 11 13 6 7 1022.5 1022.5 0.0
20/04:00am 3.5 -0.4 1.1 84 0.9 W 11 13 6 7 1022.5 1022.5 0.0
20/03:30am 3.4 -0.1 1.3 86 0.8 W 9 15 5 8 1022.6 1022.6 0.0
20/03:00am 3.1 -0.7 1.5 89 0.6 W 11 15 6 8 1022.6 1022.6 0.0
20/02:30am 2.9 -0.6 1.0 87 0.7 W 9 17 5 9 1022.9 1022.9 0.0
20/02:00am 3.2 -0.2 1.7 90 0.6 W 9 13 5 7 1023.1 1023.1 0.0
20/01:30am 3.3 -0.2 1.3 87 0.8 WSW 9 11 5 6 1023.0 1023.0 0.0
20/01:00am 4.0 0.1 1.4 83 1.0 WSW 11 15 6 8 1023.0 1023.0 0.0
20/12:30am 4.0 0.5 1.4 83 1.0 W 9 13 5 7 1022.9 1022.9 0.0
20/12:00am 3.5 0.4 1.4 86 0.8 W 7 9 4 5 1023.0 1023.0 0.0
 
Date/Time
EST
Temp
°C
App
Temp
°C
Dew
Point
°C
Rel
Hum
%
Delta-T
°C
Wind Press
QNH
hPa
Press
MSL
hPa
Rain since
9am
mm
Dir  Spd
km/h
Gust
km/h
Spd
kts
Gust
kts
19/11:30pm 3.8 0.5 2.2 89 0.6 W 9 11 5 6 1023.0 1023.0 0.0
19/11:00pm 3.6 0.1 1.5 86 0.8 WNW 9 11 5 6 1023.1 1023.1 0.0
19/10:30pm 3.6 0.6 1.8 88 0.7 W 7 11 4 6 1023.2 1023.2 0.0
19/10:00pm 4.1 0.6 1.3 82 1.1 W 9 13 5 7 1023.1 1023.1 0.0
19/09:30pm 4.4 0.5 1.1 79 1.3 W 11 15 6 8 1023.2 1023.2 0.0
19/09:00pm 4.8 1.0 1.5 79 1.3 WNW 11 13 6 7 1023.3 1023.3 0.0
19/08:30pm 5.2 1.8 2.0 80 1.3 W 9 13 5 7 1023.4 1023.4 0.0
19/08:00pm 5.7 2.4 2.2 78 1.4 W 9 13 5 7 1023.3 1023.3 0.0
19/07:30pm 5.9 2.9 1.8 75 1.7 WSW 7 13 4 7 1023.1 1023.1 0.0
19/07:00pm 7.0 3.5 1.5 68 2.2 SW 9 17 5 9 1023.0 1023.0 0.0
19/06:30pm 7.2 3.8 1.7 68 2.2 SSW 9 15 5 8 1023.0 1023.0 0.0
19/06:00pm 7.1 3.7 1.8 69 2.2 SSW 9 17 5 9 1022.8 1022.8 0.0
19/05:30pm 7.6 3.8 1.9 67 2.3 S 11 20 6 11 1022.5 1022.5 0.0
19/05:00pm 8.3 4.1 1.5 62 2.8 S 13 20 7 11 1022.1 1022.1 0.0
19/04:30pm 9.6 4.9 0.8 54 3.6 S 15 26 8 14 1021.8 1021.8 0.0
19/04:00pm 9.7 5.1 -0.8 48 4.1 SSW 13 22 7 12 1021.7 1021.7 0.0
19/03:30pm 10.8 5.5 -0.6 45 4.6 SSW 17 28 9 15 1021.4 1021.4 0.0
19/03:00pm 11.6 5.8 -1.2 41 5.1 SSW 19 37 10 20 1021.4 1021.4 0.0
19/02:30pm 11.3 5.5 -1.5 41 5.0 SW 19 37 10 20 1021.2 1021.2 0.0
19/02:00pm 10.9 4.1 -1.8 41 4.9 SSW 24 39 13 21 1021.0 1021.0 0.0
19/01:30pm 11.4 5.4 -1.4 41 5.1 SW 20 35 11 19 1021.0 1021.0 0.0
19/01:00pm 11.0 4.3 -1.4 42 4.9 SSW 24 39 13 21 1020.9 1020.9 0.0
19/12:30pm 11.4 5.5 -1.0 42 5.0 SSW 20 33 11 18 1021.1 1021.1 0.0
19/12:00pm 10.5 3.2 -2.5 40 4.9 SW 26 44 14 24 1021.2 1021.2 0.0
19/11:30am 10.4 4.5 -1.0 45 4.5 WSW 20 33 11 18 1021.5 1021.5 0.0
19/11:00am 9.7 2.6 -1.3 46 4.3 SW 26 44 14 24 1021.8 1021.8 0.0
19/10:30am 9.3 3.0 -0.8 49 4.0 SW 22 41 12 22 1022.0 1022.0 0.0
19/10:00am 8.7 2.1 -0.6 52 3.6 SW 24 43 13 23 1021.8 1021.8 0.0
19/09:30am 8.2 2.0 0.0 56 3.2 SW 22 44 12 24 1021.8 1021.8 0.0
19/09:00am 6.8 1.3 0.3 63 2.5 WSW 19 30 10 16 1021.7 1021.7 2.2
19/08:30am 6.1 0.4 -0.4 63 2.5 WSW 19 28 10 15 1021.6 1021.6 2.2
19/08:00am 5.2 0.8 0.2 70 1.9 WSW 13 19 7 10 1021.4 1021.4 2.2
19/07:30am 4.3 -0.2 -0.5 71 1.8 WSW 13 20 7 11 1021.0 1021.0 2.2
19/07:00am 4.3 -0.3 -0.9 69 1.9 SW 13 20 7 11 1020.4 1020.4 2.2
19/06:30am 4.3 -0.3 -0.7 70 1.9 WSW 13 20 7 11 1019.7 1019.8 2.2
19/06:00am 4.4 -0.9 -0.4 71 1.8 WSW 17 24 9 13 1019.2 1019.3 2.2
19/05:30am 4.1 -0.4 -0.3 73 1.6 WSW 13 20 7 11 1018.8 1018.9 2.2
19/05:00am 4.2 -1.0 0.0 74 1.6 SW 17 26 9 14 1018.3 1018.4 2.2
19/04:30am 5.1 -0.5 1.0 75 1.6 SW 20 35 11 19 1017.8 1017.9 2.2
19/04:00am 5.3 -1.1 1.1 74 1.6 SW 24 43 13 23 1017.7 1017.8 2.2
19/03:30am 4.6 -0.4 1.6 81 1.2 SW 17 32 9 17 1017.2 1017.3 2.2
19/03:00am 4.9 -0.5 2.4 84 1.0 SW 20 35 11 19 1016.9 1017.0 2.2
19/02:30am 4.7 -0.6 3.2 90 0.6 SW 20 33 11 18 1016.9 1017.0 2.2
19/02:00am 4.4 -1.3 3.1 91 0.5 SW 22 37 12 20 1016.4 1016.5 2.2
19/01:52am 4.4 -2.4 2.9 90 0.6 SW 28 52 15 28 1016.4 1016.5 2.2
19/01:30am 5.1 -0.7 2.1 81 1.2 SW 22 39 12 21 1016.2 1016.3 2.0
19/01:00am 5.2 -0.7 1.7 78 1.4 SW 22 44 12 24 1015.7 1015.8 2.0
19/12:30am 5.0 -0.6 1.5 78 1.4 SW 20 33 11 18 1015.4 1015.5 2.0
19/12:00am 5.1 -0.8 1.4 77 1.5 SW 22 35 12 19 1015.0 1015.1 2.0
 
Date/Time
EST
Temp
°C
App
Temp
°C
Dew
Point
°C
Rel
Hum
%
Delta-T
°C
Wind Press
QNH
hPa
Press
MSL
hPa
Rain since
9am
mm
Dir  Spd
km/h
Gust
km/h
Spd
kts
Gust
kts
18/11:30pm 5.1 -1.6 1.2 76 1.5 SW 26 44 14 24 1014.7 1014.8 2.0
18/11:00pm 5.3 -1.1 1.2 75 1.6 WSW 24 39 13 21 1014.5 1014.6 2.0
18/10:30pm 5.7 -0.6 1.6 75 1.6 SW 24 46 13 25 1014.2 1014.3 2.0
18/10:00pm 5.4 -0.3 3.1 85 1.0 SW 22 48 12 26 1013.8 1013.9 2.0
18/09:30pm 5.1 0.8 3.3 88 0.7 WSW 15 32 8 17 1013.5 1013.6 2.0
18/09:00pm 5.0 0.0 3.7 91 0.5 SW 19 32 10 17 1012.8 1012.9 2.0
18/08:30pm 5.2 -0.5 4.8 97 0.2 SW 24 39 13 21 1012.2 1012.3 2.0
18/08:00pm 4.8 -0.2 3.8 93 0.4 SW 19 33 10 18 1011.9 1012.0 2.0
18/07:30pm 4.5 0.4 4.2 98 0.1 WSW 15 24 8 13 1011.3 1011.4 2.0
18/07:00pm 4.0 -1.5 4.0 100 0.0 S 22 41 12 22 1011.0 1011.1 1.4
18/06:30pm 5.9 0.8 3.1 82 1.2 SW 19 30 10 16 1010.3 1010.4 0.2
18/06:00pm 5.5 0.3 3.3 86 0.9 SW 20 33 11 18 1009.4 1009.5 0.2
18/05:30pm 5.8 0.6 3.6 86 0.9 SW 20 35 11 19 1008.7 1008.8 0.2
18/05:00pm 6.4 1.5 2.3 75 1.7 SW 17 37 9 20 1007.9 1007.9 0.0
18/04:30pm 7.4 0.8 2.3 70 2.1 SW 26 46 14 25 1007.1 1007.1 0.0
18/04:29pm 7.4 0.5 2.3 70 2.1 SW 28 46 15 25 1007.1 1007.1 0.0
18/04:00pm 7.3 1.7 1.2 65 2.5 SW 20 35 11 19 1006.3 1006.3 0.0
18/03:30pm 8.0 2.0 3.1 71 2.1 SW 24 39 13 21 1005.8 1005.8 0.0
18/03:01pm 8.4 1.3 3.3 70 2.2 SSW 30 52 16 28 1005.1 1005.1 0.0
18/03:00pm 8.5 1.4 3.4 70 2.2 SSW 30 46 16 25 1005.1 1005.1 0.0
18/02:30pm 8.5 1.7 3.1 69 2.3 SSW 28 43 15 23 1004.5 1004.5 0.0
18/02:08pm 8.7 1.8 2.5 65 2.6 SSW 28 50 15 27 1004.0 1004.0 0.0
18/02:00pm 9.3 3.3 3.5 67 2.5 SSW 24 44 13 24 1003.9 1003.9 0.0
18/01:39pm 10.4 3.9 2.5 58 3.4 SSW 26 50 14 27 1003.3 1003.3 0.0
18/01:30pm 10.2 3.7 2.6 59 3.3 SW 26 43 14 23 1003.1 1003.1 0.0
18/01:00pm 8.6 1.2 4.0 73 2.0 SSW 32 54 17 29 1002.8 1002.8 0.0
18/12:52pm 9.5 2.8 3.5 66 2.6 SSW 28 54 15 29 1002.6 1002.6 0.0
18/12:30pm 10.9 4.6 1.4 52 4.0 SW 24 43 13 23 1002.3 1002.3 0.0
18/12:00pm 10.5 4.5 1.3 53 3.9 SW 22 39 12 21 1002.0 1002.0 0.0
18/11:30am 9.9 4.0 1.8 57 3.4 SW 22 35 12 19 1001.8 1001.8 0.0
18/11:00am 9.8 3.5 1.5 56 3.5 SSW 24 43 13 23 1001.5 1001.5 0.0
18/10:30am 10.3 3.8 2.7 59 3.3 SSW 26 37 14 20 1001.0 1001.1 0.0
18/10:00am 9.7 4.6 3.9 67 2.6 SW 20 39 11 21 1000.7 1000.8 0.0
18/09:30am 9.2 5.1 2.5 63 2.8 WSW 13 22 7 12 1000.4 1000.5 0.0
18/09:00am 8.2 3.9 3.5 72 2.0 W 15 24 8 13 1000.2 1000.3 0.0
18/08:30am 8.1 3.7 2.8 69 2.2 WSW 15 24 8 13 999.9 1000.0 0.0
18/08:00am 6.3 2.6 2.4 76 1.6 WSW 11 17 6 9 999.4 999.5 0.0
18/07:30am 5.4 2.3 3.4 87 0.8 W 9 13 5 7 998.9 999.0 0.0
18/07:00am 4.6 1.8 3.4 92 0.5 WNW 7 11 4 6 998.3 998.4 0.0
18/06:30am 4.4 1.5 2.8 89 0.7 W 7 9 4 5 997.6 997.7 0.0
18/06:00am 4.6 1.6 2.0 83 1.0 W 7 9 4 5 997.1 997.2 0.0
18/05:30am 4.7 1.5 1.0 77 1.4 W 7 9 4 5 996.6 996.7 0.0
18/05:00am 5.4 2.3 1.5 76 1.6 W 7 19 4 10 996.4 996.5 0.0
18/04:30am 4.8 2.2 0.9 76 1.5 WNW 4 6 2 3 996.0 996.1 0.0
18/04:00am 5.5 2.6 1.6 76 1.6 WSW 6 13 3 7 995.8 995.9 0.0
18/03:30am 6.2 3.3 2.7 78 1.4 SW 7 17 4 9 995.5 995.6 0.0
18/03:00am 6.8 2.8 3.1 77 1.6 WSW 13 22 7 12 995.0 995.1 0.0
18/02:30am 6.8 3.2 2.7 75 1.7 W 11 19 6 10 994.9 995.0 0.0
18/02:00am 6.9 2.3 3.7 80 1.4 W 17 28 9 15 994.4 994.5 0.0
18/01:30am 6.6 2.5 2.3 74 1.8 W 13 22 7 12 994.4 994.5 0.0
18/01:00am 7.3 2.8 2.2 70 2.1 W 15 26 8 14 994.2 994.3 0.0
18/12:30am 6.7 3.0 2.6 75 1.7 W 11 17 6 9 994.2 994.3 0.0
18/12:00am 7.0 4.0 2.1 71 2.0 W 7 15 4 8 994.3 994.4 0.0
 
Date/Time
EST
Temp
°C
App
Temp
°C
Dew
Point
°C
Rel
Hum
%
Delta-T
°C
Wind Press
QNH
hPa
Press
MSL
hPa
Rain since
9am
mm
Dir  Spd
km/h
Gust
km/h
Spd
kts
Gust
kts
17/11:30pm 7.1 3.3 2.0 70 2.1 W 11 17 6 9 994.2 994.3 0.0
17/11:00pm 7.9 3.0 2.2 67 2.4 W 17 26 9 14 994.1 994.2 0.0
17/10:30pm 7.5 3.0 2.4 70 2.1 W 15 28 8 15 993.9 994.0 0.0
17/10:00pm 7.4 4.0 2.1 69 2.2 W 9 13 5 7 993.7 993.8 0.0
17/09:30pm 7.7 3.9 1.8 66 2.4 WNW 11 19 6 10 993.4 993.4 0.0
17/09:00pm 8.1 4.4 2.1 66 2.5 W 11 17 6 9 993.5 993.5 0.0
17/08:30pm 8.0 5.2 2.3 67 2.4 WNW 6 11 3 6 993.7 993.8 0.0
17/08:00pm 8.7 5.4 2.7 66 2.6 WSW 9 19 5 10 993.3 993.3 0.0

Other Formats:

Comma delimited format used in spreadsheet applications
http://www.bom.gov.au/fwo/IDT60801/IDT60801.94987.axf

JavaScript Object Notation format (JSON) in row-major order
http://www.bom.gov.au/fwo/IDT60801/IDT60801.94987.json